Time;durP1;ratioP1;P1;durP2;ratioP2;P2;SDS_P1;SDS_P2;PMS_P1;PMS_P2;Temp;Humidity;BMP_temperature;BMP_pressure;BME280_temperature;BME280_humidity;BME280_pressure;Samples;Min_cycle;Max_cycle;Signal;HPM_P1;HPM_P2
2023/04/07 00:02:04;;;;;;;3.00;1.55;;;9.00;51.10;;;;;;5013070;28;20185;-74
2023/04/07 00:04:30;;;;;;;3.55;1.48;;;9.00;51.20;;;;;;5018317;28;20057;-76
2023/04/07 00:06:56;;;;;;;2.97;1.08;;;9.00;51.30;;;;;;5000768;28;20053;-75
2023/04/07 00:09:22;;;;;;;3.10;1.30;;;9.00;51.40;;;;;;5020020;28;20033;-75
2023/04/07 00:11:47;;;;;;;2.63;1.30;;;8.90;51.30;;;;;;5014089;28;20038;-75
2023/04/07 00:14:14;;;;;;;2.58;1.15;;;8.80;51.20;;;;;;5019522;28;20355;-75
2023/04/07 00:16:40;;;;;;;4.70;1.65;;;8.80;51.30;;;;;;5005101;28;20614;-76
2023/04/07 00:19:06;;;;;;;5.05;1.33;;;8.80;51.30;;;;;;5015337;28;20080;-75
2023/04/07 00:21:32;;;;;;;4.07;1.52;;;8.80;51.40;;;;;;5022169;28;20091;-75
2023/04/07 00:23:58;;;;;;;2.50;1.48;;;8.80;51.50;;;;;;5014459;28;20025;-75
2023/04/07 00:26:27;;;;;;;2.47;1.40;;;8.70;51.40;;;;;;5017297;28;20033;-75
2023/04/07 00:28:53;;;;;;;2.50;1.38;;;8.70;51.40;;;;;;5015005;28;20022;-74
2023/04/07 00:31:19;;;;;;;1.75;1.10;;;8.60;51.30;;;;;;5003955;28;20443;-75
2023/04/07 00:33:47;;;;;;;3.53;1.70;;;8.60;51.40;;;;;;5017955;28;20112;-75
2023/04/07 00:36:13;;;;;;;3.97;1.45;;;8.60;51.50;;;;;;5022722;28;20211;-75
2023/04/07 00:38:39;;;;;;;3.30;1.02;;;8.50;51.30;;;;;;4996531;28;20085;-75
2023/04/07 00:41:05;;;;;;;1.52;1.02;;;8.50;51.40;;;;;;5014514;28;20516;-74
2023/04/07 00:43:31;;;;;;;2.03;1.27;;;8.50;51.50;;;;;;4982688;28;20037;-75
2023/04/07 00:45:57;;;;;;;4.85;1.45;;;8.40;51.40;;;;;;5013042;28;20052;-73
2023/04/07 00:48:23;;;;;;;2.30;1.80;;;8.40;51.50;;;;;;5011543;28;20157;-74
2023/04/07 00:50:49;;;;;;;2.60;1.45;;;8.40;51.50;;;;;;5013502;28;20033;-76
2023/04/07 00:53:15;;;;;;;1.77;1.30;;;8.30;51.40;;;;;;5009795;28;20153;-76
2023/04/07 00:55:42;;;;;;;2.60;1.27;;;8.30;51.50;;;;;;4995050;28;20038;-76
2023/04/07 00:58:08;;;;;;;1.35;0.95;;;8.20;51.40;;;;;;4995458;28;20535;-76
2023/04/07 01:00:41;;;;;;;3.75;1.38;;;8.20;51.50;;;;;;4990771;28;20532;-77
2023/04/07 01:03:32;;;;;;;1.55;1.45;;;8.20;51.50;;;;;;5004136;28;20030;-76
2023/04/07 01:06:01;;;;;;;1.20;0.93;;;8.20;51.70;;;;;;5005277;28;20045;-77
2023/04/07 01:08:50;;;;;;;4.35;1.45;;;8.10;51.50;;;;;;4989951;28;20042;-75
2023/04/07 01:11:24;;;;;;;2.58;1.08;;;8.10;51.50;;;;;;4993518;28;20083;-75
2023/04/07 01:13:53;;;;;;;3.38;1.40;;;8.10;51.60;;;;;;4996934;28;20030;-75
2023/04/07 01:16:41;;;;;;;3.50;1.30;;;8.10;51.60;;;;;;5001898;28;20037;-75
2023/04/07 01:19:30;;;;;;;2.15;1.08;;;8.10;51.70;;;;;;4993828;28;20136;-75
2023/04/07 01:21:59;;;;;;;2.70;1.60;;;8.00;51.60;;;;;;5000605;28;20046;-75
2023/04/07 01:24:44;;;;;;;1.65;0.90;;;8.00;51.50;;;;;;5018655;28;20111;-75
2023/04/07 01:27:24;;;;;;;1.80;1.05;;;8.00;51.60;;;;;;5003715;28;20045;-75
2023/04/07 01:29:52;;;;;;;2.47;0.82;;;7.90;51.40;;;;;;4999789;28;20029;-76
2023/04/07 01:32:20;;;;;;;2.42;1.10;;;7.80;51.20;;;;;;5004407;28;20033;-76
2023/04/07 01:34:52;;;;;;;1.40;1.10;;;7.80;51.30;;;;;;4995318;28;20386;-76
2023/04/07 01:37:19;;;;;;;1.75;0.80;;;7.80;51.40;;;;;;5011413;28;20029;-76
2023/04/07 01:39:45;;;;;;;1.80;1.08;;;7.80;51.40;;;;;;4998397;28;20037;-76
2023/04/07 01:42:12;;;;;;;2.80;0.90;;;7.70;51.40;;;;;;5013593;28;20421;-76
2023/04/07 01:44:39;;;;;;;4.13;1.55;;;7.70;51.40;;;;;;5016183;28;20067;-76
2023/04/07 01:47:05;;;;;;;1.27;1.00;;;7.60;51.30;;;;;;5001781;28;20068;-73
2023/04/07 01:49:32;;;;;;;2.25;1.17;;;7.60;51.40;;;;;;5014952;28;20048;-74
2023/04/07 01:52:00;;;;;;;2.25;1.00;;;7.50;51.20;;;;;;5017594;28;20068;-76
2023/04/07 01:54:27;;;;;;;1.52;0.98;;;7.60;51.50;;;;;;5013632;28;20942;-75
2023/04/07 01:56:53;;;;;;;3.90;1.20;;;7.50;51.40;;;;;;5017724;28;20030;-75
2023/04/07 01:59:20;;;;;;;2.53;1.35;;;7.40;51.20;;;;;;4994595;28;20030;-75
2023/04/07 02:01:47;;;;;;;2.20;1.08;;;7.40;51.30;;;;;;5018336;28;20030;-76
2023/04/07 02:04:39;;;;;;;3.80;1.40;;;7.40;51.40;;;;;;5017529;28;20037;-77
2023/04/07 02:07:14;;;;;;;2.28;1.20;;;7.40;51.40;;;;;;5014833;28;20044;-74
2023/04/07 02:09:47;;;;;;;2.08;1.10;;;7.30;51.20;;;;;;5018307;28;20608;-76
2023/04/07 02:12:15;;;;;;;1.73;0.95;;;7.30;51.20;;;;;;5030107;28;20029;-76
2023/04/07 02:14:51;;;;;;;1.42;1.33;;;7.30;51.30;;;;;;5016177;28;20211;-75
2023/04/07 02:17:18;;;;;;;2.80;1.17;;;7.30;51.40;;;;;;5028872;28;20071;-75
2023/04/07 02:19:46;;;;;;;2.25;0.65;;;7.30;51.40;;;;;;5022249;28;20026;-75
2023/04/07 02:22:14;;;;;;;3.40;1.38;;;7.20;51.20;;;;;;5018442;28;20026;-75
2023/04/07 02:24:41;;;;;;;2.22;0.98;;;7.20;51.30;;;;;;5013006;28;20489;-75
2023/04/07 02:27:08;;;;;;;3.30;1.52;;;7.20;51.30;;;;;;5019306;28;20405;-75
2023/04/07 02:29:34;;;;;;;2.25;0.90;;;7.10;51.20;;;;;;5003334;28;20041;-75
2023/04/07 02:32:00;;;;;;;2.53;0.93;;;7.10;51.30;;;;;;5017963;28;20034;-77
2023/04/07 02:34:28;;;;;;;1.35;0.98;;;7.00;51.10;;;;;;4992589;28;20048;-77
2023/04/07 02:36:54;;;;;;;1.75;0.90;;;7.00;51.20;;;;;;5008886;28;20030;-78
2023/04/07 02:39:20;;;;;;;0.88;0.82;;;7.00;51.30;;;;;;5019619;28;20099;-76
2023/04/07 02:41:46;;;;;;;2.85;1.17;;;7.00;51.30;;;;;;5008125;28;20038;-75
2023/04/07 02:44:12;;;;;;;1.13;0.90;;;6.90;51.10;;;;;;5008479;28;20160;-76
2023/04/07 02:46:38;;;;;;;3.60;1.00;;;6.90;51.20;;;;;;5004803;28;20050;-75
2023/04/07 02:49:04;;;;;;;1.42;0.95;;;6.90;51.30;;;;;;5017557;28;20025;-75
2023/04/07 02:51:30;;;;;;;5.72;1.02;;;6.80;51.10;;;;;;5004016;28;20184;-75
2023/04/07 02:53:56;;;;;;;0.90;0.85;;;6.80;51.10;;;;;;5017159;28;20561;-75
2023/04/07 02:56:22;;;;;;;2.35;1.45;;;6.80;51.20;;;;;;5019157;28;20041;-75
2023/04/07 02:58:48;;;;;;;1.65;0.93;;;6.80;51.20;;;;;;4993688;28;20037;-74
2023/04/07 03:01:15;;;;;;;1.85;1.10;;;6.70;51.10;;;;;;4998357;28;20452;-75
2023/04/07 03:03:43;;;;;;;1.75;1.20;;;6.70;51.10;;;;;;5003576;28;20017;-75
2023/04/07 03:06:17;;;;;;;1.27;1.10;;;6.70;51.20;;;;;;5004645;28;20592;-77
2023/04/07 03:08:54;;;;;;;1.23;0.80;;;6.70;51.20;;;;;;5005284;28;20034;-76
2023/04/07 03:11:20;;;;;;;1.15;0.95;;;6.60;51.10;;;;;;4999878;28;20044;-76
2023/04/07 03:13:46;;;;;;;2.22;1.20;;;6.60;51.10;;;;;;5016772;28;20651;-76
2023/04/07 03:16:14;;;;;;;3.08;2.20;;;6.60;51.20;;;;;;5005110;28;20436;-75
2023/04/07 03:18:53;;;;;;;1.42;0.80;;;6.50;51.00;;;;;;4991626;28;20038;-75
2023/04/07 03:21:21;;;;;;;2.92;1.15;;;6.50;51.00;;;;;;5005973;28;20057;-75
2023/04/07 03:23:46;;;;;;;3.10;1.20;;;6.50;51.10;;;;;;5000080;28;20041;-75
2023/04/07 03:26:12;;;;;;;2.50;1.27;;;6.40;50.90;;;;;;5018988;28;20104;-73
2023/04/07 03:28:38;;;;;;;1.45;0.95;;;6.40;51.00;;;;;;5001692;28;20601;-74
2023/04/07 03:31:05;;;;;;;3.20;1.13;;;6.40;51.00;;;;;;5006869;28;20065;-75
2023/04/07 03:33:30;;;;;;;2.83;1.40;;;6.40;51.00;;;;;;5022221;28;20037;-75
2023/04/07 03:35:56;;;;;;;2.22;1.23;;;6.40;51.00;;;;;;5021262;28;20049;-75
2023/04/07 03:38:24;;;;;;;2.45;1.30;;;6.30;50.90;;;;;;5015066;28;20068;-75
2023/04/07 03:40:54;;;;;;;1.50;1.02;;;6.30;50.90;;;;;;5007324;28;20037;-76
2023/04/07 03:43:21;;;;;;;2.05;1.17;;;6.30;51.50;;;;;;5006321;28;20064;-76
2023/04/07 03:45:46;;;;;;;2.30;0.95;;;6.20;50.90;;;;;;5023067;28;20030;-76
2023/04/07 03:48:12;;;;;;;1.95;1.25;;;6.20;50.90;;;;;;5019618;28;20056;-78
2023/04/07 03:50:48;;;;;;;1.60;1.05;;;6.20;51.00;;;;;;5016211;28;20470;-78
2023/04/07 03:53:18;;;;;;;3.10;1.30;;;6.20;50.90;;;;;;5024088;28;20037;-78
2023/04/07 03:55:44;;;;;;;2.50;1.20;;;6.10;50.80;;;;;;5006529;28;20033;-78
2023/04/07 03:58:19;;;;;;;3.28;1.45;;;6.10;51.40;;;;;;5023038;28;20566;-78
2023/04/07 04:00:47;;;;;;;2.70;1.00;;;6.10;50.90;;;;;;5006142;28;20040;-76
2023/04/07 04:03:13;;;;;;;1.27;1.17;;;6.00;50.80;;;;;;5009369;28;20105;-79
2023/04/07 04:05:56;;;;;;;1.50;1.40;;;6.00;50.80;;;;;;5022600;28;20448;-77
2023/04/07 04:08:28;;;;;;;2.17;1.20;;;6.00;50.90;;;;;;5021817;28;20049;-76
2023/04/07 04:10:54;;;;;;;1.75;1.00;;;6.00;50.90;;;;;;5025677;28;20396;-78
2023/04/07 04:13:21;;;;;;;1.20;0.90;;;6.00;50.90;;;;;;5008567;28;20030;-77
2023/04/07 04:15:47;;;;;;;2.33;0.80;;;5.90;50.70;;;;;;5020764;28;20033;-77
2023/04/07 04:18:15;;;;;;;3.17;1.30;;;5.90;50.70;;;;;;5022854;28;20029;-74
2023/04/07 04:20:42;;;;;;;2.38;1.00;;;5.90;50.80;;;;;;5021549;28;20382;-75
2023/04/07 04:23:08;;;;;;;1.10;1.00;;;5.90;50.80;;;;;;5022157;28;20310;-75
2023/04/07 04:25:35;;;;;;;1.40;0.90;;;5.90;50.80;;;;;;5015387;28;20099;-75
2023/04/07 04:28:05;;;;;;;1.98;1.27;;;5.80;50.70;;;;;;5018033;28;20107;-75
2023/04/07 04:30:31;;;;;;;4.00;1.25;;;5.80;50.70;;;;;;5002585;28;20526;-75
2023/04/07 04:33:01;;;;;;;2.08;0.85;;;5.70;50.60;;;;;;5003536;28;20040;-76
2023/04/07 04:35:48;;;;;;;2.10;1.15;;;5.70;50.60;;;;;;5018590;28;20041;-75
2023/04/07 04:38:16;;;;;;;2.30;1.50;;;5.70;50.70;;;;;;5017043;28;20025;-75
2023/04/07 04:40:49;;;;;;;1.00;0.90;;;5.70;50.70;;;;;;5006086;28;20324;-74
2023/04/07 04:43:18;;;;;;;1.70;1.20;;;5.60;50.60;;;;;;5018391;28;20036;-74
2023/04/07 04:45:44;;;;;;;1.90;1.00;;;5.60;50.60;;;;;;5016580;28;20037;-75
2023/04/07 04:48:12;;;;;;;2.47;1.20;;;5.60;50.70;;;;;;5014484;28;20057;-75
2023/04/07 04:50:38;;;;;;;1.52;1.10;;;5.60;50.70;;;;;;5014562;28;20037;-75
2023/04/07 04:53:09;;;;;;;2.03;1.10;;;5.60;50.70;;;;;;5018408;28;20161;-76
2023/04/07 04:55:46;;;;;;;1.10;1.00;;;5.60;50.70;;;;;;5009698;28;20129;-75
2023/04/07 04:58:13;;;;;;;1.25;1.10;;;5.60;50.70;;;;;;5013263;28;20362;-75
2023/04/07 05:00:45;;;;;;;2.05;1.30;;;5.50;50.50;;;;;;5006213;28;20261;-76
2023/04/07 05:03:11;;;;;;;1.30;1.20;;;5.60;50.70;;;;;;5011364;28;20050;-75
2023/04/07 05:05:41;;;;;;;1.33;1.05;;;5.50;50.50;;;;;;5013356;28;20509;-76
2023/04/07 05:08:10;;;;;;;1.63;1.10;;;5.50;50.60;;;;;;5017937;28;20124;-77
2023/04/07 05:10:39;;;;;;;2.90;1.15;;;5.40;50.50;;;;;;5022454;28;20038;-78
2023/04/07 05:13:07;;;;;;;1.42;1.10;;;5.40;50.50;;;;;;5011094;28;20038;-78
2023/04/07 05:15:35;;;;;;;1.98;1.08;;;5.40;50.60;;;;;;5016793;28;20300;-78
2023/04/07 05:18:03;;;;;;;2.45;1.50;;;5.40;50.70;;;;;;5017655;28;20057;-77
2023/04/07 05:20:29;;;;;;;1.95;1.10;;;5.30;50.50;;;;;;5020810;28;20026;-77
2023/04/07 05:22:55;;;;;;;3.45;1.50;;;5.40;50.80;;;;;;5020124;28;20037;-77
2023/04/07 05:25:27;;;;;;;3.08;1.38;;;5.30;50.60;;;;;;5020253;28;20370;-75
2023/04/07 05:28:00;;;;;;;1.60;1.15;;;5.30;50.70;;;;;;5019847;28;20425;-75
2023/04/07 05:30:27;;;;;;;2.60;1.33;;;5.30;50.70;;;;;;5011525;28;20029;-76
2023/04/07 05:32:52;;;;;;;3.00;0.95;;;5.30;50.60;;;;;;5020910;28;20643;-75
2023/04/07 05:35:37;;;;;;;1.80;0.95;;;5.30;50.60;;;;;;5011179;28;20433;-75
2023/04/07 05:38:03;;;;;;;2.10;1.17;;;5.30;50.60;;;;;;5016020;28;20021;-75
2023/04/07 05:40:29;;;;;;;1.20;1.00;;;5.30;50.60;;;;;;4999396;28;20036;-75
2023/04/07 05:42:58;;;;;;;1.65;1.25;;;5.30;50.60;;;;;;5008689;28;20079;-75
2023/04/07 05:45:24;;;;;;;2.78;1.25;;;5.30;50.60;;;;;;5016343;28;20037;-75
2023/04/07 05:47:50;;;;;;;3.03;1.50;;;5.30;50.50;;;;;;5006723;28;20091;-74
2023/04/07 05:50:22;;;;;;;1.13;0.90;;;5.30;50.50;;;;;;5004434;28;20039;-75
2023/04/07 05:52:49;;;;;;;3.10;1.10;;;5.30;50.50;;;;;;4999874;28;20549;-74
2023/04/07 05:55:21;;;;;;;2.35;1.20;;;5.30;50.50;;;;;;4997465;28;20096;-73
2023/04/07 05:57:48;;;;;;;1.08;0.98;;;5.30;50.50;;;;;;4983060;28;20040;-73
2023/04/07 06:00:18;;;;;;;1.95;1.73;;;5.40;50.60;;;;;;4971941;28;20063;-73
2023/04/07 06:02:52;;;;;;;3.50;1.40;;;5.40;50.60;;;;;;4997438;28;20049;-74
2023/04/07 06:05:19;;;;;;;1.60;1.15;;;5.40;51.20;;;;;;5002381;28;20039;-75
2023/04/07 06:07:48;;;;;;;1.52;1.30;;;5.40;50.50;;;;;;4997264;28;20037;-75
2023/04/07 06:10:14;;;;;;;1.88;1.10;;;5.40;50.50;;;;;;4997043;28;20095;-75
2023/04/07 06:12:40;;;;;;;1.42;1.33;;;5.40;50.50;;;;;;4999023;28;20045;-74
2023/04/07 06:15:07;;;;;;;10.55;2.03;;;5.50;50.60;;;;;;4992157;28;20037;-76
2023/04/07 06:17:32;;;;;;;2.08;1.23;;;5.50;50.50;;;;;;5013365;28;20484;-75
2023/04/07 06:19:58;;;;;;;1.77;1.30;;;5.60;50.70;;;;;;5009212;28;20223;-75
2023/04/07 06:22:24;;;;;;;2.58;1.20;;;5.70;50.80;;;;;;4990210;28;20505;-75
2023/04/07 06:24:50;;;;;;;2.72;1.42;;;5.80;50.90;;;;;;5016603;28;20060;-74
2023/04/07 06:27:17;;;;;;;1.42;1.20;;;6.00;51.10;;;;;;5017909;28;20467;-74
2023/04/07 06:29:46;;;;;;;2.42;1.40;;;6.10;51.10;;;;;;4995751;28;20037;-75
2023/04/07 06:32:13;;;;;;;1.80;1.42;;;6.40;51.60;;;;;;5030790;28;20084;-75
2023/04/07 06:34:39;;;;;;;1.30;1.20;;;6.60;52.00;;;;;;5018549;28;20014;-77
2023/04/07 06:37:05;;;;;;;2.58;1.25;;;7.00;52.60;;;;;;5039873;28;20049;-76
2023/04/07 06:39:32;;;;;;;2.00;1.23;;;7.30;52.90;;;;;;5039689;28;20037;-76
2023/04/07 06:41:58;;;;;;;2.28;1.50;;;7.80;53.70;;;;;;5017336;28;20446;-76
2023/04/07 06:44:24;;;;;;;2.83;1.73;;;8.30;54.20;;;;;;5024982;28;20022;-75
2023/04/07 06:46:52;;;;;;;3.30;1.88;;;8.80;54.60;;;;;;5025418;28;20303;-75
2023/04/07 06:49:18;;;;;;;5.78;2.08;;;9.20;54.80;;;;;;4997971;28;20092;-75
2023/04/07 06:51:44;;;;;;;2.90;1.85;;;9.70;55.20;;;;;;5011168;28;20069;-75
2023/04/07 06:54:13;;;;;;;2.90;1.50;;;10.10;55.30;;;;;;5008869;28;20069;-76
2023/04/07 06:56:40;;;;;;;3.28;1.95;;;10.40;55.20;;;;;;5014765;28;20477;-74
2023/04/07 06:59:06;;;;;;;2.53;1.73;;;10.80;55.40;;;;;;5015303;28;20022;-75
2023/04/07 07:01:32;;;;;;;2.72;1.45;;;11.10;55.40;;;;;;5017638;28;20507;-74
2023/04/07 07:04:02;;;;;;;2.35;1.38;;;11.20;55.00;;;;;;4998136;28;20477;-74
2023/04/07 07:06:27;;;;;;;3.65;1.60;;;11.40;55.00;;;;;;5016238;28;20033;-75
2023/04/07 07:08:54;;;;;;;3.75;1.65;;;11.50;54.80;;;;;;5015128;28;20030;-74
2023/04/07 07:11:20;;;;;;;3.90;1.35;;;11.60;55.00;;;;;;5013979;28;20025;-74
2023/04/07 07:13:46;;;;;;;2.90;1.30;;;11.70;55.60;;;;;;4995168;28;20037;-73
2023/04/07 07:16:12;;;;;;;1.33;1.20;;;11.90;55.80;;;;;;5008815;28;20432;-74
2023/04/07 07:18:38;;;;;;;3.60;1.70;;;12.00;55.60;;;;;;5015404;28;20104;-74
2023/04/07 07:21:04;;;;;;;2.67;1.50;;;12.00;55.40;;;;;;5018056;28;20036;-73
2023/04/07 07:23:30;;;;;;;3.05;1.48;;;11.80;54.90;;;;;;4997163;28;20037;-74
2023/04/07 07:25:56;;;;;;;2.33;1.55;;;11.70;54.90;;;;;;5011196;28;20037;-74
2023/04/07 07:28:22;;;;;;;2.75;1.80;;;11.60;55.00;;;;;;4997129;28;20052;-74
2023/04/07 07:30:48;;;;;;;4.50;1.75;;;11.40;54.90;;;;;;5017628;28;20426;-74
2023/04/07 07:33:14;;;;;;;3.13;1.20;;;11.30;54.80;;;;;;5017401;28;20100;-74
2023/04/07 07:35:40;;;;;;;2.00;1.42;;;11.20;54.80;;;;;;5000292;28;20056;-78
2023/04/07 07:38:06;;;;;;;3.03;1.25;;;11.10;54.70;;;;;;5012334;28;20030;-78
2023/04/07 07:40:32;;;;;;;3.42;1.48;;;11.00;54.70;;;;;;5019306;28;20028;-79
2023/04/07 07:42:59;;;;;;;2.58;1.60;;;10.90;54.60;;;;;;5012137;28;20041;-79
2023/04/07 07:45:25;;;;;;;2.97;1.10;;;10.90;54.60;;;;;;5010411;28;20033;-78
2023/04/07 07:47:51;;;;;;;4.38;2.00;;;10.80;54.50;;;;;;5013630;28;20242;-78
2023/04/07 07:50:17;;;;;;;4.82;1.48;;;10.80;54.60;;;;;;4994034;28;20393;-75
2023/04/07 07:52:43;;;;;;;3.55;1.52;;;10.80;54.60;;;;;;5012645;28;20061;-77
2023/04/07 07:55:09;;;;;;;4.78;1.50;;;10.90;54.90;;;;;;5014635;28;20317;-78
2023/04/07 07:57:35;;;;;;;3.63;1.63;;;11.00;55.10;;;;;;5011411;28;20033;-77
2023/04/07 08:00:03;;;;;;;7.68;3.10;;;11.20;55.40;;;;;;5013392;28;20078;-74
2023/04/07 08:02:39;;;;;;;5.47;1.70;;;11.20;55.00;;;;;;5018972;28;20037;-73
2023/04/07 08:05:05;;;;;;;4.43;1.83;;;11.40;55.00;;;;;;5016721;28;20528;-75
2023/04/07 08:07:32;;;;;;;5.45;1.80;;;11.30;54.60;;;;;;5016070;28;20037;-73
2023/04/07 08:09:57;;;;;;;3.60;2.60;;;11.30;54.60;;;;;;5007460;28;20086;-73
2023/04/07 08:12:24;;;;;;;1.65;1.55;;;11.30;54.60;;;;;;4976928;28;20038;-74
2023/04/07 08:14:50;;;;;;;3.50;1.48;;;11.30;54.70;;;;;;4984607;28;20041;-74
2023/04/07 08:17:16;;;;;;;3.15;1.45;;;11.20;54.60;;;;;;4999928;28;20037;-74
2023/04/07 08:19:42;;;;;;;3.25;1.38;;;11.20;54.60;;;;;;5010209;28;20049;-75
2023/04/07 08:22:07;;;;;;;2.10;1.52;;;11.20;54.70;;;;;;5011109;28;20072;-75
2023/04/07 08:24:33;;;;;;;2.00;1.20;;;11.10;54.60;;;;;;4982251;28;20104;-75
2023/04/07 08:27:00;;;;;;;3.47;1.30;;;11.10;54.70;;;;;;5016621;28;20043;-74
2023/04/07 08:29:26;;;;;;;2.67;1.27;;;11.10;54.80;;;;;;5016095;28;20051;-75
2023/04/07 08:31:52;;;;;;;4.85;1.98;;;11.10;55.00;;;;;;5011042;28;20052;-73
2023/04/07 08:34:19;;;;;;;2.80;1.60;;;11.10;55.20;;;;;;4997726;28;20401;-73
2023/04/07 08:36:46;;;;;;;21.42;2.20;;;11.10;55.40;;;;;;5013355;28;20037;-74
2023/04/07 08:39:12;;;;;;;3.85;1.83;;;11.20;55.60;;;;;;5008941;28;20036;-73
2023/04/07 08:41:43;;;;;;;1.30;0.98;;;11.20;55.70;;;;;;5012177;28;20037;-74
2023/04/07 08:44:09;;;;;;;5.28;1.60;;;11.30;56.00;;;;;;5004303;28;20038;-74
2023/04/07 08:46:38;;;;;;;2.25;1.15;;;11.30;56.00;;;;;;5015686;28;20040;-74
2023/04/07 08:49:09;;;;;;;2.65;1.13;;;11.40;56.40;;;;;;5010339;28;20139;-74
2023/04/07 08:51:37;;;;;;;4.50;1.48;;;11.50;57.20;;;;;;5012872;28;20508;-74
2023/04/07 08:54:08;;;;;;;2.50;1.15;;;11.70;57.80;;;;;;5008823;28;20038;-74
2023/04/07 08:56:36;;;;;;;5.07;1.83;;;11.80;57.80;;;;;;5006683;28;20045;-74
2023/04/07 08:59:04;;;;;;;3.58;1.25;;;12.00;58.00;;;;;;5013524;28;20045;-74
2023/04/07 09:01:33;;;;;;;2.00;1.08;;;12.00;58.20;;;;;;5009749;28;20425;-75
2023/04/07 09:04:00;;;;;;;8.00;1.30;;;12.00;57.50;;;;;;5013716;28;20439;-74
2023/04/07 09:06:27;;;;;;;2.88;1.15;;;12.10;57.60;;;;;;5008435;28;20041;-74
2023/04/07 09:08:52;;;;;;;4.80;1.27;;;12.10;57.40;;;;;;5009754;28;20017;-74
2023/04/07 09:11:18;;;;;;;2.17;0.90;;;12.20;57.50;;;;;;4992873;28;20281;-74
2023/04/07 09:13:44;;;;;;;3.78;1.10;;;12.20;57.40;;;;;;5010148;28;20408;-74
2023/04/07 09:16:12;;;;;;;4.18;1.20;;;12.20;57.30;;;;;;5013923;28;20309;-74
2023/04/07 09:18:38;;;;;;;3.15;1.38;;;12.30;57.40;;;;;;5013111;28;20766;-74
2023/04/07 09:21:06;;;;;;;3.22;1.10;;;12.30;57.30;;;;;;5013527;28;20068;-75
2023/04/07 09:23:37;;;;;;;2.00;1.00;;;12.30;57.20;;;;;;4991761;28;20033;-75
2023/04/07 09:26:24;;;;;;;4.68;1.13;;;12.30;57.10;;;;;;4998750;28;20045;-73
2023/04/07 09:28:56;;;;;;;5.65;1.45;;;12.30;57.00;;;;;;4986756;28;20131;-73
2023/04/07 09:31:25;;;;;;;5.78;1.77;;;12.40;57.10;;;;;;5017673;28;20605;-74
2023/04/07 09:33:51;;;;;;;5.93;1.33;;;12.40;57.00;;;;;;5018676;28;20122;-74
2023/04/07 09:36:18;;;;;;;4.57;1.17;;;12.40;56.90;;;;;;5011319;28;20440;-74
2023/04/07 09:38:45;;;;;;;6.88;1.33;;;12.50;57.10;;;;;;5006655;28;20021;-74
2023/04/07 09:41:15;;;;;;;3.03;1.27;;;12.60;57.10;;;;;;4998200;28;20052;-77
2023/04/07 09:43:46;;;;;;;4.47;1.33;;;12.70;57.20;;;;;;4992539;28;20029;-77
2023/04/07 09:46:17;;;;;;;4.53;1.13;;;12.70;57.20;;;;;;4981252;28;20096;-77
2023/04/07 09:48:45;;;;;;;1.90;1.35;;;12.90;58.10;;;;;;4990554;28;20073;-77
2023/04/07 09:51:13;;;;;;;2.35;0.88;;;13.10;58.60;;;;;;4995749;28;20022;-77
2023/04/07 09:53:46;;;;;;;4.63;1.10;;;13.30;59.00;;;;;;4990219;28;20034;-77
2023/04/07 09:56:15;;;;;;;3.38;1.25;;;13.50;59.30;;;;;;4990592;28;20426;-77
2023/04/07 09:58:43;;;;;;;3.03;1.20;;;13.70;59.40;;;;;;4995381;28;20385;-80
2023/04/07 10:01:10;;;;;;;4.55;0.90;;;13.90;59.50;;;;;;4976123;28;20036;-78
2023/04/07 10:03:37;;;;;;;3.28;0.82;;;14.10;59.70;;;;;;4996317;28;20029;-77
2023/04/07 10:06:05;;;;;;;1.67;0.85;;;14.30;59.80;;;;;;4990644;28;20486;-79
2023/04/07 10:08:33;;;;;;;3.63;0.80;;;14.40;59.60;;;;;;4993502;28;21173;-78
2023/04/07 10:11:03;;;;;;;2.75;1.02;;;14.60;59.60;;;;;;4977148;28;20034;-79
2023/04/07 10:13:33;;;;;;;3.30;0.90;;;14.80;59.60;;;;;;4988828;28;20034;-79
2023/04/07 10:16:02;;;;;;;2.70;1.00;;;14.90;59.40;;;;;;4975014;28;20813;-79
2023/04/07 10:18:30;;;;;;;3.22;1.00;;;15.10;59.30;;;;;;4991842;28;20045;-78
2023/04/07 10:21:02;;;;;;;6.00;1.23;;;15.30;59.20;;;;;;4987440;28;20514;-79
2023/04/07 10:23:32;;;;;;;4.05;1.27;;;15.40;58.90;;;;;;4989429;28;20038;-79
2023/04/07 10:26:00;;;;;;;1.90;0.70;;;15.50;58.60;;;;;;4988609;28;20073;-78
2023/04/07 10:28:29;;;;;;;0.75;0.60;;;15.70;58.50;;;;;;4984967;28;20091;-78
2023/04/07 10:30:56;;;;;;;2.67;0.80;;;15.80;58.20;;;;;;4992189;28;20050;-75
2023/04/07 10:33:46;;;;;;;3.20;1.33;;;15.90;57.90;;;;;;4978219;28;20217;-75
2023/04/07 10:36:12;;;;;;;4.43;1.00;;;16.10;57.60;;;;;;4995430;28;20076;-77
2023/04/07 10:38:38;;;;;;;2.38;0.90;;;16.20;57.50;;;;;;4993841;28;20056;-76
2023/04/07 10:41:38;;;;;;;2.95;1.13;;;16.30;57.20;;;;;;4982322;28;20034;-77
2023/04/07 10:44:10;;;;;;;4.63;1.30;;;16.40;56.60;;;;;;4995719;28;20338;-79
2023/04/07 10:46:47;;;;;;;3.45;0.80;;;16.50;56.40;;;;;;4993649;28;20026;-75
2023/04/07 10:49:15;;;;;;;5.03;1.15;;;16.60;56.00;;;;;;4996520;28;20640;-76
2023/04/07 10:51:41;;;;;;;1.90;0.70;;;16.70;55.90;;;;;;5009197;28;20117;-76
2023/04/07 10:54:17;;;;;;;3.25;0.82;;;16.80;55.70;;;;;;4996301;28;20045;-74
2023/04/07 10:57:01;;;;;;;3.08;1.10;;;16.90;55.50;;;;;;5019364;28;20029;-74
2023/04/07 10:59:32;;;;;;;2.97;1.45;;;16.90;55.10;;;;;;5014760;28;20741;-76
2023/04/07 11:02:13;;;;;;;2.83;0.70;;;17.00;55.10;;;;;;5016192;28;20030;-78
2023/04/07 11:04:41;;;;;;;7.80;2.17;;;17.00;54.60;;;;;;5000612;28;20064;-75
2023/04/07 11:07:07;;;;;;;11.13;3.15;;;17.00;54.70;;;;;;5019277;28;20054;-75
2023/04/07 11:09:34;;;;;;;12.95;3.17;;;17.00;55.20;;;;;;5011178;28;20026;-74
2023/04/07 11:11:59;;;;;;;9.25;2.30;;;17.00;54.90;;;;;;4973198;28;20052;-74
2023/04/07 11:14:27;;;;;;;8.98;2.33;;;17.00;55.30;;;;;;5021468;28;20037;-74
2023/04/07 11:16:53;;;;;;;7.25;2.42;;;16.90;55.20;;;;;;5016221;28;20551;-74
2023/04/07 11:19:19;;;;;;;7.43;2.00;;;16.90;55.40;;;;;;5016146;28;20030;-74
2023/04/07 11:21:45;;;;;;;6.47;1.92;;;16.90;55.40;;;;;;5021313;28;20059;-77
2023/04/07 11:24:36;;;;;;;4.70;1.58;;;16.90;55.50;;;;;;5004468;28;20460;-79
2023/04/07 11:27:02;;;;;;;5.07;1.73;;;16.90;55.40;;;;;;5018560;28;20086;-79
2023/04/07 11:29:30;;;;;;;4.32;1.05;;;16.80;55.10;;;;;;4996845;28;20545;-79
2023/04/07 11:32:00;;;;;;;3.10;1.30;;;16.80;55.00;;;;;;4994298;28;20065;-80
2023/04/07 11:34:34;;;;;;;4.70;1.65;;;16.80;54.80;;;;;;5001101;28;20479;-79
2023/04/07 11:37:18;;;;;;;2.17;1.10;;;16.80;54.50;;;;;;5021670;28;20025;-79
2023/04/07 11:39:46;;;;;;;;;;;16.80;54.20;;;;;;5002204;28;20558;-79
2023/04/07 11:42:12;;;;;;;5.03;0.90;;;16.80;54.40;;;;;;4994090;28;20282;-78
2023/04/07 11:44:45;;;;;;;2.45;0.70;;;16.80;54.40;;;;;;5004595;28;20033;-78
2023/04/07 11:47:11;;;;;;;4.05;1.20;;;16.70;53.80;;;;;;5012370;28;20092;-78
2023/04/07 11:49:44;;;;;;;2.42;0.77;;;16.70;53.70;;;;;;5014681;28;20116;-78
2023/04/07 11:52:10;;;;;;;3.97;0.80;;;16.70;53.60;;;;;;5013907;28;20049;-79
2023/04/07 11:54:43;;;;;;;1.88;0.80;;;16.80;53.80;;;;;;4990856;28;20324;-78
2023/04/07 11:57:11;;;;;;;2.20;0.73;;;16.80;53.50;;;;;;5021055;28;20035;-78
2023/04/07 11:59:37;;;;;;;4.80;1.25;;;16.70;53.10;;;;;;5011539;28;20033;-78
2023/04/07 12:02:03;;;;;;;2.78;1.02;;;16.80;52.90;;;;;;5021757;28;20113;-78
2023/04/07 12:04:30;;;;;;;3.30;0.80;;;16.80;52.70;;;;;;5020241;28;20108;-78
2023/04/07 12:07:07;;;;;;;2.78;1.48;;;16.80;52.50;;;;;;5037038;28;20353;-79
2023/04/07 12:09:37;;;;;;;2.35;0.90;;;16.80;52.20;;;;;;5029326;28;20496;-79
2023/04/07 12:12:05;;;;;;;2.10;0.57;;;16.90;52.30;;;;;;5023829;28;20033;-80
2023/04/07 12:14:31;;;;;;;3.20;0.60;;;16.90;52.00;;;;;;5009816;28;20068;-80
2023/04/07 12:16:57;;;;;;;2.13;0.80;;;16.90;51.70;;;;;;5043860;28;20041;-80
2023/04/07 12:19:26;;;;;;;2.55;0.75;;;17.00;51.40;;;;;;5006443;28;20075;-80
2023/04/07 12:21:53;;;;;;;4.95;1.25;;;17.00;51.20;;;;;;4995864;28;20068;-77
2023/04/07 12:24:20;;;;;;;5.60;1.23;;;17.00;51.00;;;;;;5017057;28;20493;-75
2023/04/07 12:26:46;;;;;;;3.63;0.93;;;17.10;51.00;;;;;;5008692;28;20468;-75
2023/04/07 12:29:13;;;;;;;3.10;1.02;;;17.10;50.70;;;;;;4999539;28;20105;-74
2023/04/07 12:31:39;;;;;;;1.63;0.60;;;17.10;50.30;;;;;;4995265;28;20444;-74
2023/04/07 12:34:05;;;;;;;1.42;0.70;;;17.20;49.90;;;;;;5004085;28;20489;-75
2023/04/07 12:36:32;;;;;;;2.47;0.90;;;17.20;49.30;;;;;;4998860;28;20033;-74
2023/04/07 12:38:58;;;;;;;1.15;0.40;;;17.30;49.20;;;;;;4998574;28;20118;-75
2023/04/07 12:41:24;;;;;;;7.30;1.67;;;17.30;48.80;;;;;;5015852;28;20541;-74
2023/04/07 12:43:50;;;;;;;3.03;1.17;;;17.40;48.80;;;;;;5006987;28;20022;-76
2023/04/07 12:46:16;;;;;;;1.25;0.50;;;17.50;48.80;;;;;;5015775;28;20045;-75
2023/04/07 12:48:43;;;;;;;4.53;1.13;;;17.60;48.70;;;;;;5018264;28;20049;-73
2023/04/07 12:51:09;;;;;;;6.32;1.27;;;17.60;48.70;;;;;;5016370;28;20091;-74
2023/04/07 12:53:35;;;;;;;2.90;1.05;;;17.80;49.20;;;;;;5013112;28;20025;-72
2023/04/07 12:56:01;;;;;;;2.30;0.70;;;18.00;50.40;;;;;;5015567;28;20204;-71
2023/04/07 12:58:27;;;;;;;2.47;0.90;;;18.20;50.10;;;;;;5017341;28;20040;-73
2023/04/07 13:00:53;;;;;;;3.13;0.85;;;18.40;50.40;;;;;;5009945;28;20029;-74